Time;durP1;ratioP1;P1;durP2;ratioP2;P2;SDS_P1;SDS_P2;PMS_P1;PMS_P2;Temp;Humidity;BMP_temperature;BMP_pressure;BME280_temperature;BME280_humidity;BME280_pressure;Samples;Min_cycle;Max_cycle;Signal;HPM_P1;HPM_P2
2023/06/19 00:02:14;;;;;;;;;;;;;;;25.92;46.83;100621.15;103606;1292;62713;-82
2023/06/19 00:04:39;;;;;;;;;;;;;;;25.91;46.67;100619.19;103584;1292;62197;-82
2023/06/19 00:07:05;;;;;;;;;;;;;;;25.91;46.86;100617.56;103487;1292;62190;-83
2023/06/19 00:09:32;;;;;;;;;;;;;;;25.92;46.88;100617.85;103567;1286;62210;-82
2023/06/19 00:11:59;;;;;;;;;;;;;;;25.92;46.80;100617.00;103507;1291;62178;-82
2023/06/19 00:14:25;;;;;;;;;;;;;;;25.92;46.72;100614.48;103540;1285;62067;-82
2023/06/19 00:16:51;;;;;;;;;;;;;;;25.92;46.68;100612.66;103585;1284;62499;-82
2023/06/19 00:19:17;;;;;;;;;;;;;;;25.92;46.89;100613.23;103543;1285;62470;-82
2023/06/19 00:21:42;;;;;;;;;;;;;;;25.91;46.98;100609.62;103602;1285;62990;-82
2023/06/19 00:24:09;;;;;;;;;;;;;;;25.92;46.57;100611.59;103664;1288;62139;-83
2023/06/19 00:26:34;;;;;;;;;;;;;;;25.91;46.78;100615.60;103554;1286;62191;-82
2023/06/19 00:28:59;;;;;;;;;;;;;;;25.91;46.75;100615.80;103652;1291;62841;-82
2023/06/19 00:31:27;;;;;;;;;;;;;;;25.91;46.74;100620.29;103677;1288;62210;-82
2023/06/19 00:33:52;;;;;;;;;;;;;;;25.91;46.55;100621.55;103582;1286;62225;-82
2023/06/19 00:36:20;;;;;;;;;;;;;;;25.91;46.68;100620.84;103625;1290;62370;-81
2023/06/19 00:38:46;;;;;;;;;;;;;;;25.91;46.57;100622.84;103574;1291;62132;-82
2023/06/19 00:41:11;;;;;;;;;;;;;;;25.91;46.82;100626.10;103517;1288;62123;-82
2023/06/19 00:43:37;;;;;;;;;;;;;;;25.91;46.64;100623.78;103544;1285;62376;-81
2023/06/19 00:46:02;;;;;;;;;;;;;;;25.90;46.92;100620.21;103574;1288;63549;-81
2023/06/19 00:48:28;;;;;;;;;;;;;;;25.91;46.85;100627.77;103743;1284;62117;-81
2023/06/19 00:50:54;;;;;;;;;;;;;;;25.90;46.85;100629.59;103681;1285;62223;-82
2023/06/19 00:53:19;;;;;;;;;;;;;;;25.90;46.66;100629.96;103615;1288;62217;-81
2023/06/19 00:55:45;;;;;;;;;;;;;;;25.90;46.72;100633.20;103702;1288;62206;-82
2023/06/19 00:58:10;;;;;;;;;;;;;;;25.90;46.63;100640.40;103596;1288;62899;-82
2023/06/19 01:00:36;;;;;;;;;;;;;;;25.90;46.91;100645.27;103656;1292;62197;-82
2023/06/19 01:03:02;;;;;;;;;;;;;;;25.90;46.60;100648.89;103555;1290;63474;-82
2023/06/19 01:05:28;;;;;;;;;;;;;;;25.90;46.72;100653.40;103545;1291;62335;-82
2023/06/19 01:08:05;;;;;;;;;;;;;;;25.90;46.83;100655.57;103600;1288;62208;-82
2023/06/19 01:10:32;;;;;;;;;;;;;;;25.90;46.82;100657.95;103650;1285;73665;-82
2023/06/19 01:13:16;;;;;;;;;;;;;;;25.90;46.67;100656.84;103697;1284;67573;-82
2023/06/19 01:15:41;;;;;;;;;;;;;;;25.90;46.60;100659.36;103581;1285;62159;-82
2023/06/19 01:18:07;;;;;;;;;;;;;;;25.90;46.70;100658.48;103678;1288;63508;-81
2023/06/19 01:20:33;;;;;;;;;;;;;;;25.90;46.77;100661.19;103586;1286;62252;-82
2023/06/19 01:23:08;;;;;;;;;;;;;;;25.89;46.90;100660.71;103573;1286;62310;-83
2023/06/19 01:25:33;;;;;;;;;;;;;;;25.89;46.85;100662.48;103628;1288;62691;-83
2023/06/19 01:27:59;;;;;;;;;;;;;;;25.89;46.80;100663.41;103660;1285;63600;-82
2023/06/19 01:30:24;;;;;;;;;;;;;;;25.89;46.93;100665.91;103571;1291;62143;-82
2023/06/19 01:32:54;;;;;;;;;;;;;;;25.89;46.79;100669.88;103522;1291;62235;-82
2023/06/19 01:35:19;;;;;;;;;;;;;;;25.89;46.87;100671.15;103706;1289;63391;-82
2023/06/19 01:37:45;;;;;;;;;;;;;;;25.88;46.94;100672.12;103600;1285;62208;-82
2023/06/19 01:40:11;;;;;;;;;;;;;;;25.89;46.77;100671.35;103447;1291;62169;-81
2023/06/19 01:42:39;;;;;;;;;;;;;;;25.88;47.03;100673.57;103466;1285;62770;-82
2023/06/19 01:45:05;;;;;;;;;;;;;;;25.89;46.85;100674.98;103624;1291;63194;-82
2023/06/19 01:47:31;;;;;;;;;;;;;;;25.88;46.96;100678.61;103458;1286;62080;-82
2023/06/19 01:49:56;;;;;;;;;;;;;;;25.88;46.95;100681.68;103474;1292;62240;-83
2023/06/19 01:52:22;;;;;;;;;;;;;;;25.88;46.97;100682.23;103426;1291;62661;-82
2023/06/19 01:54:47;;;;;;;;;;;;;;;25.89;46.70;100683.81;103525;1290;62280;-81
2023/06/19 01:57:13;;;;;;;;;;;;;;;25.88;46.91;100681.73;103586;1291;62206;-82
2023/06/19 01:59:38;;;;;;;;;;;;;;;25.88;46.82;100686.21;103476;1287;62174;-81
2023/06/19 02:02:06;;;;;;;;;;;;;;;25.88;47.01;100686.60;103476;1287;62283;-81
2023/06/19 02:04:32;;;;;;;;;;;;;;;25.88;46.89;100688.77;103416;1290;62196;-82
2023/06/19 02:06:57;;;;;;;;;;;;;;;25.88;47.04;100691.46;103437;1285;62204;-82
2023/06/19 02:09:23;;;;;;;;;;;;;;;25.88;46.93;100688.05;103585;1286;62345;-82
2023/06/19 02:11:48;;;;;;;;;;;;;;;25.88;46.92;100693.08;103527;1293;62249;-82
2023/06/19 02:14:14;;;;;;;;;;;;;;;25.87;46.97;100692.41;103468;1285;63624;-82
2023/06/19 02:16:43;;;;;;;;;;;;;;;25.88;46.94;100693.66;103550;1291;62183;-82
2023/06/19 02:19:11;;;;;;;;;;;;;;;25.88;46.94;100691.48;103574;1285;62220;-82
2023/06/19 02:21:37;;;;;;;;;;;;;;;25.88;46.92;100693.11;103456;1292;62300;-82
2023/06/19 02:24:03;;;;;;;;;;;;;;;25.87;46.85;100693.15;103483;1290;62171;-82
2023/06/19 02:26:29;;;;;;;;;;;;;;;25.86;46.87;100688.17;103573;1286;62832;-82
2023/06/19 02:28:55;;;;;;;;;;;;;;;25.87;46.84;100685.41;103554;1290;62193;-82
2023/06/19 02:31:21;;;;;;;;;;;;;;;25.87;46.91;100685.81;103591;1285;62191;-82
2023/06/19 02:33:46;;;;;;;;;;;;;;;25.87;47.13;100689.05;103433;1287;62215;-82
2023/06/19 02:36:13;;;;;;;;;;;;;;;25.87;46.85;100686.72;103751;1285;62193;-82
2023/06/19 02:38:38;;;;;;;;;;;;;;;25.86;46.93;100684.75;103514;1290;66670;-82
2023/06/19 02:41:04;;;;;;;;;;;;;;;25.86;46.93;100687.70;103483;1290;63768;-82
2023/06/19 02:43:29;;;;;;;;;;;;;;;25.87;47.09;100690.71;103561;1285;62281;-82
2023/06/19 02:45:55;;;;;;;;;;;;;;;25.86;47.04;100692.33;103515;1290;62178;-82
2023/06/19 02:48:23;;;;;;;;;;;;;;;25.86;47.02;100698.10;103544;1285;63189;-82
2023/06/19 02:50:48;;;;;;;;;;;;;;;25.86;46.93;100697.97;103660;1286;66455;-83
2023/06/19 02:53:16;;;;;;;;;;;;;;;25.86;47.00;100697.41;103487;1285;62193;-83
2023/06/19 02:55:42;;;;;;;;;;;;;;;25.86;46.93;100699.98;103635;1289;62068;-83
2023/06/19 02:58:07;;;;;;;;;;;;;;;25.85;47.03;100705.05;103463;1285;62122;-82
2023/06/19 03:00:33;;;;;;;;;;;;;;;25.85;46.97;100700.75;103496;1289;62219;-82
2023/06/19 03:02:59;;;;;;;;;;;;;;;25.85;47.19;100693.55;103461;1285;62214;-82
2023/06/19 03:05:26;;;;;;;;;;;;;;;25.85;47.05;100691.19;103517;1286;62277;-83
2023/06/19 03:07:52;;;;;;;;;;;;;;;25.85;46.86;100681.11;103590;1291;62080;-82
2023/06/19 03:10:18;;;;;;;;;;;;;;;25.85;47.03;100675.20;103459;1286;62220;-82
2023/06/19 03:12:43;;;;;;;;;;;;;;;25.85;47.06;100669.20;103507;1290;62108;-82
2023/06/19 03:15:09;;;;;;;;;;;;;;;25.85;47.07;100666.34;103459;1291;62258;-82
2023/06/19 03:17:34;;;;;;;;;;;;;;;25.85;47.06;100665.25;103615;1290;62219;-82
2023/06/19 03:20:00;;;;;;;;;;;;;;;25.85;46.90;100672.42;103541;1288;62209;-82
2023/06/19 03:22:25;;;;;;;;;;;;;;;25.85;47.03;100675.33;103491;1291;62177;-82
2023/06/19 03:24:51;;;;;;;;;;;;;;;25.84;46.88;100679.19;103523;1286;62227;-81
2023/06/19 03:27:17;;;;;;;;;;;;;;;25.85;46.99;100682.39;103546;1285;62357;-82
2023/06/19 03:29:42;;;;;;;;;;;;;;;25.84;46.86;100683.34;103586;1285;62207;-82
2023/06/19 03:32:08;;;;;;;;;;;;;;;25.85;46.92;100682.21;103585;1285;62290;-82
2023/06/19 03:34:33;;;;;;;;;;;;;;;25.84;47.01;100680.44;103471;1286;62259;-82
2023/06/19 03:36:59;;;;;;;;;;;;;;;25.84;47.05;100677.05;103593;1285;62651;-82
2023/06/19 03:39:24;;;;;;;;;;;;;;;25.84;47.21;100683.56;103496;1285;62326;-82
2023/06/19 03:41:50;;;;;;;;;;;;;;;25.84;47.09;100686.98;103622;1285;62348;-82
2023/06/19 03:44:15;;;;;;;;;;;;;;;25.84;46.86;100685.52;103468;1286;62221;-82
2023/06/19 03:46:42;;;;;;;;;;;;;;;25.84;47.16;100690.59;103667;1285;62187;-82
2023/06/19 03:49:09;;;;;;;;;;;;;;;25.84;46.91;100692.93;103476;1290;62211;-82
2023/06/19 03:51:35;;;;;;;;;;;;;;;25.84;46.94;100696.00;103485;1285;62207;-82
2023/06/19 03:54:01;;;;;;;;;;;;;;;25.84;46.99;100695.84;103530;1288;62221;-82
2023/06/19 03:56:27;;;;;;;;;;;;;;;25.84;46.95;100697.66;103567;1285;62296;-82
2023/06/19 03:58:52;;;;;;;;;;;;;;;25.84;46.87;100697.46;103550;1285;63544;-82
2023/06/19 04:01:18;;;;;;;;;;;;;;;25.83;46.88;100699.48;103605;1285;62222;-82
2023/06/19 04:03:43;;;;;;;;;;;;;;;25.83;47.16;100698.27;103554;1285;62198;-82
2023/06/19 04:06:08;;;;;;;;;;;;;;;25.83;46.91;100700.80;103494;1288;62921;-82
2023/06/19 04:08:34;;;;;;;;;;;;;;;25.82;46.80;100702.09;103542;1285;62128;-82
2023/06/19 04:10:59;;;;;;;;;;;;;;;25.82;46.96;100706.42;103832;1287;62363;-82
2023/06/19 04:13:25;;;;;;;;;;;;;;;25.82;46.83;100706.47;103874;1285;62204;-82
2023/06/19 04:15:51;;;;;;;;;;;;;;;25.80;46.87;100707.73;103766;1288;62117;-82
2023/06/19 04:18:17;;;;;;;;;;;;;;;25.77;46.92;100710.48;103722;1288;62139;-82
2023/06/19 04:20:42;;;;;;;;;;;;;;;25.74;46.85;100712.40;103561;1286;64444;-82
2023/06/19 04:23:08;;;;;;;;;;;;;;;25.72;46.92;100713.85;103733;1285;62210;-82
2023/06/19 04:25:34;;;;;;;;;;;;;;;25.69;46.78;100716.79;103806;1297;62175;-82
2023/06/19 04:27:59;;;;;;;;;;;;;;;25.68;46.90;100718.17;104070;1285;63446;-82
2023/06/19 04:30:25;;;;;;;;;;;;;;;25.65;46.77;100716.81;103804;1287;62271;-81
2023/06/19 04:32:52;;;;;;;;;;;;;;;25.63;46.89;100718.35;103873;1288;62240;-81
2023/06/19 04:35:18;;;;;;;;;;;;;;;25.60;46.84;100723.38;103839;1286;67534;-82
2023/06/19 04:37:48;;;;;;;;;;;;;;;25.58;46.94;100723.20;103804;1286;63450;-82
2023/06/19 04:40:14;;;;;;;;;;;;;;;25.57;46.82;100722.59;103760;1288;62078;-82
2023/06/19 04:42:39;;;;;;;;;;;;;;;25.57;46.79;100726.91;103730;1286;62209;-82
2023/06/19 04:45:07;;;;;;;;;;;;;;;25.57;46.69;100729.98;103673;1286;62740;-82
2023/06/19 04:47:32;;;;;;;;;;;;;;;25.57;46.77;100734.11;103956;1284;64594;-82
2023/06/19 04:49:58;;;;;;;;;;;;;;;25.57;46.77;100734.16;103938;1287;62826;-82
2023/06/19 04:52:23;;;;;;;;;;;;;;;25.56;46.77;100738.69;103826;1288;62277;-82
2023/06/19 04:54:49;;;;;;;;;;;;;;;25.56;46.88;100739.48;103766;1286;63449;-82
2023/06/19 04:57:15;;;;;;;;;;;;;;;25.55;46.91;100742.47;103898;1290;62100;-82
2023/06/19 04:59:40;;;;;;;;;;;;;;;25.54;46.95;100749.15;103793;1289;62572;-82
2023/06/19 05:02:07;;;;;;;;;;;;;;;25.55;46.92;100749.48;103879;1285;62266;-81
2023/06/19 05:04:32;;;;;;;;;;;;;;;25.54;46.76;100756.34;103854;1285;62214;-81
2023/06/19 05:06:58;;;;;;;;;;;;;;;25.54;46.81;100759.27;104113;1290;62224;-81
2023/06/19 05:09:24;;;;;;;;;;;;;;;25.53;46.81;100757.17;104067;1284;62215;-82
2023/06/19 05:11:49;;;;;;;;;;;;;;;25.53;46.89;100757.95;104103;1284;62114;-82
2023/06/19 05:14:16;;;;;;;;;;;;;;;25.52;46.97;100761.80;103716;1286;62105;-82
2023/06/19 05:16:41;;;;;;;;;;;;;;;25.50;46.82;100764.51;103767;1285;63822;-81
2023/06/19 05:19:07;;;;;;;;;;;;;;;25.50;46.88;100762.91;103865;1290;62415;-82
2023/06/19 05:21:32;;;;;;;;;;;;;;;25.49;47.04;100764.04;104031;1285;62154;-82
2023/06/19 05:23:58;;;;;;;;;;;;;;;25.49;46.96;100768.04;103850;1285;62281;-82
2023/06/19 05:26:25;;;;;;;;;;;;;;;25.50;47.01;100771.05;103920;1284;63271;-82
2023/06/19 05:28:51;;;;;;;;;;;;;;;25.51;47.12;100771.11;103784;1285;64787;-82
2023/06/19 05:31:18;;;;;;;;;;;;;;;25.54;47.19;100771.55;103740;1291;62159;-82
2023/06/19 05:33:44;;;;;;;;;;;;;;;25.56;46.96;100776.56;103813;1285;63446;-82
2023/06/19 05:36:09;;;;;;;;;;;;;;;25.59;46.95;100777.92;103870;1288;62242;-81
2023/06/19 05:38:35;;;;;;;;;;;;;;;25.60;46.95;100781.80;103745;1286;62189;-81
2023/06/19 05:41:01;;;;;;;;;;;;;;;25.63;47.09;100782.45;103796;1284;62220;-82
2023/06/19 05:43:27;;;;;;;;;;;;;;;25.66;46.92;100784.02;103782;1284;62124;-82
2023/06/19 05:45:53;;;;;;;;;;;;;;;25.67;46.80;100784.23;103913;1286;62579;-82
2023/06/19 05:48:18;;;;;;;;;;;;;;;25.69;46.64;100783.89;103729;1286;62143;-82
2023/06/19 05:50:44;;;;;;;;;;;;;;;25.71;46.71;100786.74;103869;1285;62254;-81
2023/06/19 05:53:09;;;;;;;;;;;;;;;25.73;46.87;100789.30;103733;1286;62115;-81
2023/06/19 05:55:34;;;;;;;;;;;;;;;25.74;46.74;100789.05;103772;1285;62248;-81
2023/06/19 05:58:00;;;;;;;;;;;;;;;25.75;46.68;100789.45;103924;1285;62284;-82
2023/06/19 06:00:26;;;;;;;;;;;;;;;25.77;46.72;100793.63;103954;1284;62204;-82
2023/06/19 06:02:52;;;;;;;;;;;;;;;25.78;46.65;100794.39;103757;1285;62268;-83
2023/06/19 06:05:20;;;;;;;;;;;;;;;25.79;46.54;100796.35;103910;1288;62176;-83
2023/06/19 06:07:46;;;;;;;;;;;;;;;25.79;46.59;100795.05;103800;1284;62668;-82
2023/06/19 06:10:11;;;;;;;;;;;;;;;25.79;46.56;100793.23;103846;1285;62273;-82
2023/06/19 06:12:37;;;;;;;;;;;;;;;25.80;46.46;100794.06;103912;1287;63454;-82
2023/06/19 06:15:04;;;;;;;;;;;;;;;25.80;46.40;100784.69;103825;1285;62193;-82
2023/06/19 06:17:29;;;;;;;;;;;;;;;25.81;46.66;100780.30;103731;1285;62230;-82
2023/06/19 06:19:55;;;;;;;;;;;;;;;25.81;46.66;100783.48;103701;1287;62246;-82
2023/06/19 06:22:20;;;;;;;;;;;;;;;25.82;46.50;100781.98;103767;1285;62229;-82
2023/06/19 06:24:46;;;;;;;;;;;;;;;25.82;46.60;100782.85;103739;1285;62120;-82
2023/06/19 06:27:13;;;;;;;;;;;;;;;25.84;46.36;100778.21;103724;1285;62185;-82
2023/06/19 06:29:38;;;;;;;;;;;;;;;25.85;46.49;100781.16;103702;1285;62255;-83
2023/06/19 06:32:08;;;;;;;;;;;;;;;25.86;46.67;100777.33;103805;1284;62261;-82
2023/06/19 06:34:34;;;;;;;;;;;;;;;25.86;46.54;100781.83;103661;1289;63831;-82
2023/06/19 06:36:59;;;;;;;;;;;;;;;25.85;46.54;100787.83;103714;1285;62227;-82
2023/06/19 06:39:25;;;;;;;;;;;;;;;25.85;46.37;100792.91;103747;1286;62258;-83
2023/06/19 06:41:51;;;;;;;;;;;;;;;25.84;46.20;100791.67;103717;1285;62645;-83
2023/06/19 06:44:16;;;;;;;;;;;;;;;25.84;46.46;100792.81;103670;1289;62820;-82
2023/06/19 06:46:41;;;;;;;;;;;;;;;25.84;46.41;100797.00;103821;1286;62102;-83
2023/06/19 06:49:07;;;;;;;;;;;;;;;25.83;46.37;100794.73;103676;1285;62210;-83
2023/06/19 06:51:33;;;;;;;;;;;;;;;25.82;46.19;100796.58;103953;1287;62200;-83
2023/06/19 06:53:59;;;;;;;;;;;;;;;25.82;46.22;100800.55;103777;1285;62639;-83
2023/06/19 06:56:24;;;;;;;;;;;;;;;25.81;46.14;100796.50;103966;1285;62250;-83
2023/06/19 06:58:49;;;;;;;;;;;;;;;25.81;46.47;100790.72;103873;1285;62107;-83
2023/06/19 07:01:15;;;;;;;;;;;;;;;25.80;46.39;100794.03;103945;1285;63375;-83
2023/06/19 07:03:40;;;;;;;;;;;;;;;25.80;46.17;100794.82;103777;1286;62102;-83
2023/06/19 07:06:06;;;;;;;;;;;;;;;25.80;46.12;100799.67;103867;1285;62221;-83
2023/06/19 07:08:31;;;;;;;;;;;;;;;25.80;46.42;100800.77;103679;1285;62129;-83
2023/06/19 07:10:57;;;;;;;;;;;;;;;25.79;46.17;100801.71;103899;1285;62464;-82
2023/06/19 07:13:22;;;;;;;;;;;;;;;25.79;46.29;100809.64;103903;1288;62134;-82
2023/06/19 07:15:48;;;;;;;;;;;;;;;25.79;45.95;100809.45;103373;1285;669264;-82
2023/06/19 07:18:13;;;;;;;;;;;;;;;25.79;46.12;100806.58;103993;1285;62174;-82
2023/06/19 07:20:40;;;;;;;;;;;;;;;25.79;45.94;100803.85;103798;1285;62253;-82
2023/06/19 07:23:06;;;;;;;;;;;;;;;25.79;46.15;100804.41;103863;1289;62205;-83
2023/06/19 07:25:33;;;;;;;;;;;;;;;25.79;46.07;100804.22;103935;1284;62217;-82
2023/06/19 07:27:59;;;;;;;;;;;;;;;25.80;45.95;100803.99;103875;1286;62157;-82
2023/06/19 07:30:25;;;;;;;;;;;;;;;25.81;46.13;100804.25;103805;1284;62177;-81
2023/06/19 07:32:51;;;;;;;;;;;;;;;25.82;45.98;100803.48;103776;1291;62193;-81
2023/06/19 07:35:17;;;;;;;;;;;;;;;25.83;45.78;100803.73;103741;1286;62217;-82
2023/06/19 07:37:42;;;;;;;;;;;;;;;25.84;46.14;100808.63;103751;1285;62219;-81
2023/06/19 07:40:08;;;;;;;;;;;;;;;25.86;46.00;100807.07;103840;1285;62774;-82
2023/06/19 07:42:33;;;;;;;;;;;;;;;25.86;46.05;100809.69;104200;1285;61992;-82
2023/06/19 07:44:59;;;;;;;;;;;;;;;25.87;45.90;100810.02;103914;1286;62284;-82
2023/06/19 07:47:25;;;;;;;;;;;;;;;25.88;45.88;100811.88;104054;1285;62523;-82
2023/06/19 07:49:51;;;;;;;;;;;;;;;25.88;45.94;100814.20;104324;1284;63779;-82
2023/06/19 07:52:16;;;;;;;;;;;;;;;25.87;45.81;100816.15;104138;1284;62198;-81
2023/06/19 07:54:55;;;;;;;;;;;;;;;25.87;45.93;100818.15;104181;1285;62525;-83
2023/06/19 07:57:21;;;;;;;;;;;;;;;25.88;45.92;100818.43;103865;1289;66695;-82
2023/06/19 07:59:47;;;;;;;;;;;;;;;25.87;45.85;100819.88;103770;1286;62265;-82
2023/06/19 08:02:12;;;;;;;;;;;;;;;25.87;45.72;100821.30;103869;1285;62105;-82
2023/06/19 08:04:38;;;;;;;;;;;;;;;25.86;45.59;100816.61;103830;1284;62214;-81
2023/06/19 08:07:03;;;;;;;;;;;;;;;25.83;45.58;100812.94;103842;1288;62211;-81
2023/06/19 08:09:29;;;;;;;;;;;;;;;25.82;45.63;100813.90;104067;1285;67505;-81
2023/06/19 08:11:54;;;;;;;;;;;;;;;25.83;45.54;100814.14;103963;1285;62833;-82
2023/06/19 08:14:20;;;;;;;;;;;;;;;25.84;45.60;100808.52;103841;1285;62266;-82
2023/06/19 08:16:45;;;;;;;;;;;;;;;25.83;45.63;100810.69;103994;1285;62242;-82
2023/06/19 08:19:11;;;;;;;;;;;;;;;25.82;45.50;100803.65;104792;1285;62185;-83
2023/06/19 08:21:37;;;;;;;;;;;;;;;25.82;45.41;100801.69;104542;1284;66678;-82
2023/06/19 08:24:02;;;;;;;;;;;;;;;25.82;45.48;100804.70;104494;1285;62118;-81
2023/06/19 08:26:28;;;;;;;;;;;;;;;25.82;45.42;100806.87;104459;1284;62170;-82
2023/06/19 08:28:53;;;;;;;;;;;;;;;25.84;45.56;100805.27;105257;1285;62091;-81
2023/06/19 08:31:19;;;;;;;;;;;;;;;25.86;45.67;100808.83;105115;1285;62252;-81
2023/06/19 08:33:48;;;;;;;;;;;;;;;25.88;45.73;100808.64;105241;1287;66626;-82
2023/06/19 08:36:14;;;;;;;;;;;;;;;25.91;45.57;100808.77;104874;1284;62085;-82
2023/06/19 08:38:39;;;;;;;;;;;;;;;25.93;45.35;100809.27;105132;1285;60928;-82
2023/06/19 08:41:04;;;;;;;;;;;;;;;25.96;45.68;100810.47;104956;1285;62188;-82
2023/06/19 08:43:30;;;;;;;;;;;;;;;25.98;45.34;100809.39;104733;1284;62079;-82
2023/06/19 08:46:12;;;;;;;;;;;;;;;26.00;45.47;100812.45;104989;1288;62276;-82
2023/06/19 08:48:37;;;;;;;;;;;;;;;26.02;45.50;100814.05;106891;1284;59794;-82
2023/06/19 08:51:04;;;;;;;;;;;;;;;26.03;45.53;100812.33;105336;1285;62070;-82
2023/06/19 08:53:34;;;;;;;;;;;;;;;26.05;45.41;100811.10;104778;1285;62004;-82
2023/06/19 08:55:59;;;;;;;;;;;;;;;26.07;45.49;100812.55;104603;1284;66968;-82
2023/06/19 08:58:26;;;;;;;;;;;;;;;26.08;45.39;100807.23;104545;1284;62213;-81
2023/06/19 09:00:51;;;;;;;;;;;;;;;26.09;45.39;100807.29;103995;1285;62126;-82
2023/06/19 09:03:21;;;;;;;;;;;;;;;26.10;45.51;100802.70;104081;1285;62193;-82
2023/06/19 09:05:49;;;;;;;;;;;;;;;26.11;45.32;100802.27;103968;1288;66902;-82
2023/06/19 09:08:15;;;;;;;;;;;;;;;26.11;45.38;100800.95;103735;1291;62253;-82
2023/06/19 09:10:41;;;;;;;;;;;;;;;26.12;45.28;100800.05;104180;1285;62185;-81
2023/06/19 09:13:07;;;;;;;;;;;;;;;26.12;45.32;100799.47;103841;1286;62214;-82
2023/06/19 09:15:36;;;;;;;;;;;;;;;26.12;45.32;100795.69;103704;1285;63244;-82
2023/06/19 09:18:08;;;;;;;;;;;;;;;26.11;45.09;100789.93;103666;1286;62132;-82
2023/06/19 09:20:36;;;;;;;;;;;;;;;26.12;45.05;100790.08;103794;1290;62740;-82
2023/06/19 09:23:01;;;;;;;;;;;;;;;26.13;45.14;100791.81;103626;1285;64783;-82
2023/06/19 09:25:26;;;;;;;;;;;;;;;26.12;45.00;100795.11;103579;1289;62166;-82
2023/06/19 09:27:53;;;;;;;;;;;;;;;26.12;44.97;100791.86;103611;1285;62232;-81
2023/06/19 09:30:18;;;;;;;;;;;;;;;26.12;45.08;100783.98;103645;1285;62644;-82
2023/06/19 09:32:44;;;;;;;;;;;;;;;26.11;45.03;100788.88;103754;1286;62193;-83
2023/06/19 09:35:09;;;;;;;;;;;;;;;26.10;44.98;100787.65;104154;1284;62964;-82
2023/06/19 09:37:35;;;;;;;;;;;;;;;26.10;44.74;100788.94;103899;1291;62149;-82
2023/06/19 09:40:03;;;;;;;;;;;;;;;26.10;44.87;100785.21;103917;1285;62200;-82
2023/06/19 09:42:32;;;;;;;;;;;;;;;26.10;45.07;100787.34;104336;1284;62304;-82
2023/06/19 09:44:59;;;;;;;;;;;;;;;26.10;44.91;100786.64;104263;1285;66070;-81
2023/06/19 09:47:25;;;;;;;;;;;;;;;26.10;44.77;100784.67;104564;1285;67461;-82
2023/06/19 09:49:54;;;;;;;;;;;;;;;26.10;44.92;100778.55;104032;1285;62101;-81
2023/06/19 09:52:22;;;;;;;;;;;;;;;26.10;45.02;100779.95;104168;1285;62195;-81
2023/06/19 09:54:47;;;;;;;;;;;;;;;26.10;44.96;100781.73;105086;1285;64742;-82
2023/06/19 09:57:13;;;;;;;;;;;;;;;26.10;44.93;100778.83;104141;1285;62203;-81
2023/06/19 09:59:39;;;;;;;;;;;;;;;26.10;44.82;100769.80;104274;1284;62073;-81
2023/06/19 10:02:06;;;;;;;;;;;;;;;26.10;44.71;100766.05;104043;1285;62326;-81
2023/06/19 10:04:41;;;;;;;;;;;;;;;26.10;44.74;100764.05;104226;1287;62187;-82
2023/06/19 10:07:14;;;;;;;;;;;;;;;26.10;44.73;100763.54;104222;1285;65909;-82
2023/06/19 10:09:39;;;;;;;;;;;;;;;26.10;44.65;100760.29;104228;1284;63034;-81
2023/06/19 10:12:11;;;;;;;;;;;;;;;26.10;44.62;100759.91;104157;1285;63387;-82
2023/06/19 10:14:44;;;;;;;;;;;;;;;26.10;44.67;100760.61;103841;1285;63973;-82
2023/06/19 10:17:10;;;;;;;;;;;;;;;26.11;44.76;100756.08;103794;1286;67576;-82
2023/06/19 10:19:35;;;;;;;;;;;;;;;26.10;44.71;100755.73;104235;1284;62241;-82
2023/06/19 10:22:00;;;;;;;;;;;;;;;26.10;44.55;100757.38;103848;1284;62108;-81
2023/06/19 10:24:26;;;;;;;;;;;;;;;26.10;44.71;100751.84;103771;1285;62287;-82
2023/06/19 10:27:01;;;;;;;;;;;;;;;26.09;44.40;100751.34;104311;1285;62218;-81
2023/06/19 10:29:27;;;;;;;;;;;;;;;26.10;44.54;100746.81;104310;1285;67834;-81
2023/06/19 10:32:19;;;;;;;;;;;;;;;26.10;44.62;100742.84;104612;1284;61976;-81
2023/06/19 10:34:46;;;;;;;;;;;;;;;26.10;44.35;100737.40;103838;1291;63331;-81
2023/06/19 10:37:12;;;;;;;;;;;;;;;26.10;44.25;100739.35;103795;1293;63799;-82
2023/06/19 10:39:38;;;;;;;;;;;;;;;26.10;44.61;100739.16;103560;1293;62194;-82
2023/06/19 10:42:07;;;;;;;;;;;;;;;26.11;44.30;100738.40;103506;1293;62274;-82
2023/06/19 10:44:32;;;;;;;;;;;;;;;26.11;44.34;100735.70;103501;1291;62248;-82
2023/06/19 10:46:58;;;;;;;;;;;;;;;26.11;44.33;100729.54;103594;1291;62405;-81
2023/06/19 10:49:23;;;;;;;;;;;;;;;26.11;44.40;100722.70;103552;1294;62113;-81
2023/06/19 10:51:49;;;;;;;;;;;;;;;26.11;44.36;100719.67;103704;1295;62309;-82
2023/06/19 10:54:15;;;;;;;;;;;;;;;26.11;44.32;100723.05;103723;1294;62237;-82
2023/06/19 10:56:43;;;;;;;;;;;;;;;26.12;44.58;100719.77;103628;1293;62147;-80
2023/06/19 10:59:09;;;;;;;;;;;;;;;26.12;44.47;100714.02;103378;1292;64177;-81
2023/06/19 11:01:35;;;;;;;;;;;;;;;26.12;44.50;100706.77;103537;1294;62199;-81
2023/06/19 11:04:06;;;;;;;;;;;;;;;26.12;44.30;100701.00;103662;1294;62302;-81
2023/06/19 11:06:32;;;;;;;;;;;;;;;26.12;44.16;100701.69;104030;1294;62258;-81
2023/06/19 11:08:57;;;;;;;;;;;;;;;26.12;44.30;100700.44;103860;1294;62202;-81
2023/06/19 11:11:23;;;;;;;;;;;;;;;26.12;44.35;100698.27;104040;1285;62231;-81
2023/06/19 11:13:48;;;;;;;;;;;;;;;26.12;44.24;100693.22;104446;1287;62207;-82
2023/06/19 11:16:17;;;;;;;;;;;;;;;26.13;44.26;100692.06;104185;1285;64305;-82
2023/06/19 11:18:42;;;;;;;;;;;;;;;26.13;44.22;100689.70;104030;1285;62552;-81
2023/06/19 11:21:08;;;;;;;;;;;;;;;26.13;44.03;100686.83;103918;1285;62311;-82
2023/06/19 11:23:33;;;;;;;;;;;;;;;26.14;44.12;100683.86;103968;1285;62265;-81
2023/06/19 11:26:05;;;;;;;;;;;;;;;26.14;44.03;100676.22;104375;1285;62220;-81
2023/06/19 11:28:32;;;;;;;;;;;;;;;26.14;44.16;100673.76;104342;1285;62165;-81
2023/06/19 11:30:58;;;;;;;;;;;;;;;26.14;44.21;100671.93;104185;1284;64330;-81
2023/06/19 11:33:24;;;;;;;;;;;;;;;26.14;44.05;100672.64;104187;1284;62231;-81
2023/06/19 11:35:49;;;;;;;;;;;;;;;26.15;43.93;100668.24;104116;1285;63107;-82
2023/06/19 11:38:19;;;;;;;;;;;;;;;26.15;43.94;100670.93;104176;1285;62105;-81
2023/06/19 11:40:45;;;;;;;;;;;;;;;26.15;44.10;100673.80;104385;1285;63910;-81
2023/06/19 11:43:12;;;;;;;;;;;;;;;26.15;43.95;100673.63;104251;1285;66477;-81
2023/06/19 11:45:46;;;;;;;;;;;;;;;26.16;44.00;100677.37;103998;1285;62185;-82
2023/06/19 11:48:12;;;;;;;;;;;;;;;26.16;43.92;100676.94;103925;1285;61996;-81
2023/06/19 11:50:38;;;;;;;;;;;;;;;26.17;44.14;100678.36;104142;1285;62187;-81
2023/06/19 11:53:03;;;;;;;;;;;;;;;26.16;43.98;100674.60;104365;1286;62206;-81
2023/06/19 11:55:29;;;;;;;;;;;;;;;26.17;43.89;100675.25;104312;1284;62190;-81
2023/06/19 11:57:55;;;;;;;;;;;;;;;26.17;43.82;100672.17;104611;1284;62198;-82
2023/06/19 12:00:20;;;;;;;;;;;;;;;26.17;43.95;100669.10;104327;1285;62217;-81
2023/06/19 12:02:49;;;;;;;;;;;;;;;26.18;43.93;100669.75;104292;1284;65133;-81
2023/06/19 12:05:15;;;;;;;;;;;;;;;26.18;43.90;100669.24;104188;1290;66970;-82
2023/06/19 12:07:41;;;;;;;;;;;;;;;26.18;43.88;100666.46;104393;1285;62179;-81
2023/06/19 12:10:09;;;;;;;;;;;;;;;26.19;43.70;100664.61;104333;1286;62118;-82
2023/06/19 12:12:36;;;;;;;;;;;;;;;26.19;43.99;100662.59;104403;1285;64924;-83
2023/06/19 12:15:03;;;;;;;;;;;;;;;26.20;43.95;100664.54;104387;1284;66568;-81
2023/06/19 12:17:29;;;;;;;;;;;;;;;26.20;43.91;100659.27;104134;1285;62203;-82
2023/06/19 12:19:55;;;;;;;;;;;;;;;26.20;44.02;100655.62;104293;1284;62119;-82
2023/06/19 12:22:20;;;;;;;;;;;;;;;26.21;43.93;100651.43;104134;1285;62184;-81